Time;durP1;ratioP1;P1;durP2;ratioP2;P2;SDS_P1;SDS_P2;PMS_P1;PMS_P2;Temp;Humidity;BMP_temperature;BMP_pressure;BME280_temperature;BME280_humidity;BME280_pressure;Samples;Min_cycle;Max_cycle;Signal;HPM_P1;HPM_P2
2022/06/26 00:04:07;;;;;;;59.93;56.47;;;;;;;14.65;100.00;100978.41;2015023;71;32811;-75
2022/06/26 00:09:51;;;;;;;60.30;56.70;;;;;;;14.55;100.00;100987.82;2009638;71;33477;-73
2022/06/26 00:15:35;;;;;;;59.17;55.67;;;;;;;14.38;100.00;100980.59;2009945;71;32806;-73
2022/06/26 00:21:20;;;;;;;58.50;55.00;;;;;;;14.33;100.00;100982.08;2007590;71;32873;-73
2022/06/26 00:27:06;;;;;;;60.60;57.00;;;;;;;14.43;100.00;100986.93;2007691;71;32866;-73
2022/06/26 00:32:50;;;;;;;59.00;55.40;;;;;;;14.20;100.00;100995.44;1995277;71;33208;-73
2022/06/26 00:38:37;;;;;;;59.43;55.83;;;;;;;14.12;100.00;100995.55;2009401;70;32915;-73
2022/06/26 00:44:24;;;;;;;61.13;57.40;;;;;;;14.18;100.00;100993.51;2004093;71;32873;-73
2022/06/26 00:50:10;;;;;;;64.10;60.10;;;;;;;14.01;100.00;101002.45;2009248;71;32860;-73
2022/06/26 00:55:56;;;;;;;62.90;59.13;;;;;;;13.97;100.00;100997.21;2009477;71;33301;-73
2022/06/26 01:01:41;;;;;;;61.73;57.93;;;;;;;14.13;100.00;101000.01;2013185;71;33403;-73
2022/06/26 01:07:28;;;;;;;61.67;58.07;;;;;;;14.06;100.00;100999.58;1997083;71;32744;-73
2022/06/26 01:13:12;;;;;;;64.87;60.97;;;;;;;13.68;100.00;101000.19;2005814;71;33373;-73
2022/06/26 01:18:58;;;;;;;63.87;59.93;;;;;;;13.27;100.00;101017.23;2008034;71;32777;-73
2022/06/26 01:24:42;;;;;;;63.70;59.90;;;;;;;13.36;100.00;101017.66;2002543;71;33316;-73
2022/06/26 01:30:27;;;;;;;64.00;60.20;;;;;;;13.32;100.00;101019.95;2004070;71;32859;-73
2022/06/26 01:36:11;;;;;;;64.97;61.13;;;;;;;13.13;100.00;101023.56;2009955;71;32817;-74
2022/06/26 01:41:55;;;;;;;63.80;59.80;;;;;;;13.25;100.00;101027.88;1998800;71;32739;-73
2022/06/26 01:47:39;;;;;;;63.93;60.03;;;;;;;13.21;100.00;101029.87;2000591;71;32733;-73
2022/06/26 01:53:25;;;;;;;64.10;60.10;;;;;;;13.20;100.00;101022.63;1998889;71;32785;-73
2022/06/26 01:59:10;;;;;;;64.87;60.77;;;;;;;13.23;100.00;101019.79;2004340;71;32800;-73
2022/06/26 02:04:54;;;;;;;61.87;57.83;;;;;;;12.89;100.00;101016.28;2011732;71;32795;-73
2022/06/26 02:16:40;;;;;;;61.17;57.17;;;;;;;13.03;100.00;101013.05;2013534;71;32791;-73
2022/06/26 02:22:24;;;;;;;62.03;58.13;;;;;;;12.96;100.00;101010.64;1998574;71;32882;-73
2022/06/26 02:28:09;;;;;;;61.87;57.97;;;;;;;12.91;100.00;101018.22;2005762;71;33331;-73
2022/06/26 02:33:53;;;;;;;63.93;59.93;;;;;;;12.61;100.00;101023.02;2002369;71;33259;-73
2022/06/26 02:39:37;;;;;;;64.50;60.37;;;;;;;12.62;100.00;101028.83;2011743;71;32808;-74
2022/06/26 02:45:22;;;;;;;65.30;61.10;;;;;;;12.53;100.00;101016.69;2016907;71;32807;-73
2022/06/26 02:51:07;;;;;;;64.97;60.90;;;;;;;12.57;100.00;101014.98;2014732;71;32812;-73
2022/06/26 02:56:51;;;;;;;65.80;61.67;;;;;;;12.95;100.00;101010.36;2002272;71;32816;-73
2022/06/26 03:02:36;;;;;;;66.20;62.00;;;;;;;13.09;100.00;101014.66;1991419;71;32904;-73
2022/06/26 03:08:22;;;;;;;64.00;60.03;;;;;;;13.09;100.00;101018.84;2004343;71;33315;-73
2022/06/26 03:14:06;;;;;;;61.77;58.07;;;;;;;13.14;100.00;101028.55;2013131;71;32908;-73
2022/06/26 03:19:53;;;;;;;63.80;59.70;;;;;;;13.09;100.00;101032.79;2011250;71;32850;-73
2022/06/26 03:25:37;;;;;;;61.83;57.90;;;;;;;12.96;100.00;101037.13;1994645;70;32912;-73
2022/06/26 03:31:22;;;;;;;62.07;58.20;;;;;;;12.76;100.00;101046.52;2005921;71;32948;-73
2022/06/26 03:37:07;;;;;;;62.00;58.00;;;;;;;12.71;100.00;101046.58;2005778;71;33277;-73
2022/06/26 03:42:54;;;;;;;61.97;58.13;;;;;;;12.76;100.00;101052.66;2009671;71;32811;-73
2022/06/26 03:48:38;;;;;;;62.73;58.73;;;;;;;12.82;100.00;101050.66;1995381;71;32817;-73
2022/06/26 03:54:25;;;;;;;61.23;57.47;;;;;;;12.95;100.00;101056.92;2002558;71;32762;-75
2022/06/26 04:00:11;;;;;;;61.30;57.33;;;;;;;12.84;100.00;101059.55;1997858;71;39500;-74
2022/06/26 04:05:55;;;;;;;62.90;58.90;;;;;;;12.72;100.00;101053.81;1998940;71;32808;-74
2022/06/26 04:11:40;;;;;;;63.50;59.40;;;;;;;12.40;100.00;101065.30;1991443;71;32737;-75
2022/06/26 04:17:24;;;;;;;61.67;57.47;;;;;;;12.57;100.00;101056.77;2014762;71;32815;-74
2022/06/26 04:23:13;;;;;;;61.03;56.93;;;;;;;12.78;100.00;101064.36;2015047;71;33297;-76
2022/06/26 04:28:58;;;;;;;62.77;58.67;;;;;;;12.77;100.00;101077.47;2002495;71;32754;-75
2022/06/26 04:34:42;;;;;;;60.27;56.57;;;;;;;12.90;100.00;101073.70;2011188;71;32989;-77
2022/06/26 04:40:26;;;;;;;62.60;58.50;;;;;;;13.09;100.00;101082.98;1994615;71;32923;-75
2022/06/26 04:46:10;;;;;;;60.40;56.47;;;;;;;13.24;100.00;101082.83;2000839;71;33286;-76
2022/06/26 04:51:55;;;;;;;58.23;54.33;;;;;;;13.14;100.00;101078.19;2000151;71;32787;-76
2022/06/26 04:57:39;;;;;;;59.07;55.20;;;;;;;13.66;100.00;101073.63;2011281;71;32804;-75
2022/06/26 05:03:26;;;;;;;61.13;57.33;;;;;;;13.68;100.00;101076.40;2012285;71;32738;-74
2022/06/26 05:09:10;;;;;;;62.13;58.33;;;;;;;13.77;100.00;101078.52;2013331;71;33498;-78
2022/06/26 05:14:57;;;;;;;60.43;56.50;;;;;;;13.83;100.00;101087.89;2006384;71;33329;-77
2022/06/26 05:20:41;;;;;;;59.93;55.97;;;;;;;13.82;100.00;101082.63;2015202;71;33409;-78
2022/06/26 05:26:26;;;;;;;60.77;56.97;;;;;;;13.84;100.00;101091.52;2008123;71;32859;-79
2022/06/26 05:32:11;;;;;;;61.30;57.50;;;;;;;14.03;100.00;101093.77;1991723;71;33288;-75
2022/06/26 05:37:55;;;;;;;62.73;58.73;;;;;;;14.12;100.00;101098.34;2013123;71;32889;-75
2022/06/26 05:43:39;;;;;;;60.57;56.57;;;;;;;14.33;100.00;101096.09;1998673;71;32820;-75
2022/06/26 05:49:23;;;;;;;59.93;56.23;;;;;;;14.48;100.00;101086.06;2014683;71;33324;-74
2022/06/26 05:55:09;;;;;;;59.83;56.13;;;;;;;14.72;100.00;101089.30;2013257;71;32805;-75
2022/06/26 06:00:53;;;;;;;60.47;56.60;;;;;;;14.77;100.00;101090.59;2007369;71;32847;-75
2022/06/26 06:06:38;;;;;;;61.27;57.47;;;;;;;14.95;100.00;101093.33;2009544;71;32854;-76
2022/06/26 06:12:23;;;;;;;61.70;57.73;;;;;;;15.04;100.00;101101.83;2009739;71;32843;-76
2022/06/26 06:18:07;;;;;;;58.07;54.47;;;;;;;15.12;100.00;101100.28;2008086;71;33443;-76
2022/06/26 06:23:52;;;;;;;55.57;52.17;;;;;;;15.23;100.00;101105.36;2011614;71;32903;-76
2022/06/26 06:29:36;;;;;;;55.83;52.63;;;;;;;15.30;100.00;101097.40;1995802;71;33308;-76
2022/06/26 06:35:24;;;;;;;53.77;50.47;;;;;;;15.46;100.00;101093.14;2002689;71;33355;-75
2022/06/26 06:41:08;;;;;;;51.50;48.50;;;;;;;15.56;100.00;101098.30;2001111;71;32827;-76
2022/06/26 06:46:52;;;;;;;50.50;47.60;;;;;;;15.62;100.00;101100.66;2009798;71;32824;-76
2022/06/26 06:52:37;;;;;;;48.33;45.33;;;;;;;15.72;100.00;101094.02;2011600;71;33354;-76
2022/06/26 06:58:23;;;;;;;45.90;43.20;;;;;;;15.88;100.00;101097.56;1999205;71;32762;-77
2022/06/26 07:04:07;;;;;;;42.77;40.17;;;;;;;15.91;100.00;101082.11;2016931;71;33344;-75
2022/06/26 07:09:51;;;;;;;44.40;41.50;;;;;;;15.85;100.00;101085.59;1996976;71;32779;-75
2022/06/26 07:15:35;;;;;;;41.77;39.03;;;;;;;16.15;100.00;101094.43;1991884;71;32895;-75
2022/06/26 07:21:20;;;;;;;38.93;36.23;;;;;;;16.16;100.00;101103.10;2017137;71;33257;-75
2022/06/26 07:27:05;;;;;;;38.90;36.50;;;;;;;16.39;100.00;101108.40;2002675;71;32826;-74
2022/06/26 07:32:49;;;;;;;32.70;30.90;;;;;;;16.66;100.00;101113.09;2014889;71;32798;-74
2022/06/26 07:38:34;;;;;;;26.63;25.03;;;;;;;17.08;100.00;101117.87;2006602;71;32802;-74
2022/06/26 07:44:18;;;;;;;27.63;25.53;;;;;;;17.52;100.00;101116.34;2016789;71;33391;-74
2022/06/26 07:50:02;;;;;;;20.60;19.27;;;;;;;17.87;100.00;101120.10;2015134;71;33497;-74
2022/06/26 07:55:47;;;;;;;17.60;16.50;;;;;;;18.23;100.00;101109.16;1998584;71;31002;-73
2022/06/26 08:01:32;;;;;;;16.70;15.57;;;;;;;18.11;100.00;101125.25;2014977;71;31033;-73
2022/06/26 08:07:17;;;;;;;15.23;14.33;;;;;;;18.02;100.00;101111.19;2018785;71;31034;-75
2022/06/26 08:13:01;;;;;;;13.73;13.07;;;;;;;18.65;100.00;101126.62;2004146;71;33303;-75
2022/06/26 08:18:45;;;;;;;13.03;12.13;;;;;;;18.78;100.00;101131.25;2011586;71;31033;-75
2022/06/26 08:24:29;;;;;;;11.63;10.83;;;;;;;18.87;100.00;101121.37;2006466;71;32870;-75
2022/06/26 08:30:14;;;;;;;11.30;10.40;;;;;;;19.21;100.00;101121.86;2004293;71;30896;-75
2022/06/26 08:35:59;;;;;;;10.83;10.13;;;;;;;18.79;100.00;101133.45;2004692;71;30866;-76
2022/06/26 08:41:45;;;;;;;12.07;11.10;;;;;;;18.76;100.00;101128.50;2013786;71;30854;-74
2022/06/26 08:47:33;;;;;;;10.70;10.00;;;;;;;19.73;100.00;101119.06;2004328;71;31415;-74
2022/06/26 08:53:18;;;;;;;10.40;9.43;;;;;;;19.31;100.00;101123.71;1997257;71;30890;-73
2022/06/26 08:59:02;;;;;;;9.60;9.10;;;;;;;19.46;100.00;101125.19;2000456;71;30869;-75
2022/06/26 09:04:47;;;;;;;10.20;9.47;;;;;;;19.92;100.00;101120.86;2004687;71;30870;-76
2022/06/26 09:10:37;;;;;;;10.37;9.60;;;;;;;20.37;100.00;101128.09;1978071;72;30923;-76
2022/06/26 09:16:30;;;;;;;9.83;9.23;;;;;;;20.02;100.00;101125.28;2016845;71;30956;-77
2022/06/26 09:22:25;;;;;;;10.20;9.33;;;;;;;19.88;100.00;101143.86;2003115;71;30955;-76
2022/06/26 09:28:14;;;;;;;11.73;10.80;;;;;;;19.40;100.00;101161.70;1991712;71;30851;-74
2022/06/26 09:34:07;;;;;;;10.20;9.50;;;;;;;19.06;100.00;101166.28;2004305;70;30970;-74
2022/06/26 09:39:52;;;;;;;11.70;10.77;;;;;;;19.72;100.00;101168.16;2015472;71;30872;-76
2022/06/26 09:45:43;;;;;;;11.40;10.40;;;;;;;19.98;100.00;101166.00;2004291;71;30866;-76
2022/06/26 09:51:27;;;;;;;10.87;9.97;;;;;;;20.04;100.00;101184.14;2013612;71;30951;-73
2022/06/26 09:57:13;;;;;;;11.43;10.53;;;;;;;19.93;100.00;101187.95;1999316;71;31325;-75
2022/06/26 10:09:02;;;;;;;10.50;9.70;;;;;;;20.48;100.00;101187.78;2011452;71;33385;-76
2022/06/26 10:14:50;;;;;;;10.60;9.90;;;;;;;20.82;100.00;101175.37;2018567;71;30864;-75
2022/06/26 10:20:46;;;;;;;10.10;9.50;;;;;;;20.35;100.00;101180.41;1998729;71;30910;-75
2022/06/26 10:26:55;;;;;;;10.87;9.97;;;;;;;20.61;100.00;101172.57;2015319;71;31063;-75
2022/06/26 10:33:08;;;;;;;10.50;9.67;;;;;;;20.73;100.00;101172.63;2016967;71;30897;-76
2022/06/26 10:39:06;;;;;;;10.10;9.30;;;;;;;20.60;100.00;101175.73;2000945;71;31365;-74
2022/06/26 10:45:01;;;;;;;10.03;9.30;;;;;;;20.69;100.00;101163.78;1995297;71;30912;-74
2022/06/26 10:51:01;;;;;;;10.93;9.83;;;;;;;20.80;100.00;101167.23;1991568;71;30920;-74
2022/06/26 10:56:47;;;;;;;10.60;10.00;;;;;;;21.25;100.00;101158.00;2006332;71;31027;-75
2022/06/26 11:02:39;;;;;;;10.37;9.67;;;;;;;21.03;100.00;101176.16;2000597;71;31433;-77
2022/06/26 11:08:31;;;;;;;9.60;8.83;;;;;;;20.56;100.00;101176.17;2008259;71;30921;-76
2022/06/26 11:14:19;;;;;;;10.30;9.50;;;;;;;21.04;100.00;101172.16;2009841;71;33387;-76
2022/06/26 11:26:09;;;;;;;10.60;9.80;;;;;;;21.43;100.00;101171.36;2006481;71;30849;-76
2022/06/26 11:31:56;;;;;;;9.30;8.77;;;;;;;21.48;100.00;101164.06;1998906;71;31354;-75
2022/06/26 11:37:42;;;;;;;10.97;10.33;;;;;;;21.49;100.00;101162.86;2015464;71;30900;-76
2022/06/26 11:43:31;;;;;;;10.70;10.10;;;;;;;21.28;100.00;101160.95;2006363;70;31470;-75
2022/06/26 11:49:15;;;;;;;10.73;10.00;;;;;;;21.31;100.00;101158.00;2016887;71;30887;-76
2022/06/26 11:55:00;;;;;;;11.33;10.53;;;;;;;21.42;100.00;101159.22;2017034;71;30933;-76
2022/06/26 12:00:46;;;;;;;10.30;9.70;;;;;;;21.34;100.00;101153.08;2001034;71;30905;-76
2022/06/26 12:06:36;;;;;;;10.07;9.37;;;;;;;21.59;100.00;101155.34;2010223;71;30962;-76
2022/06/26 12:12:31;;;;;;;9.95;9.15;;;;;;;21.30;100.00;101155.80;2011577;71;33465;-76
2022/06/26 12:18:16;;;;;;;9.70;9.20;;;;;;;21.69;100.00;101157.72;1995021;71;30934;-76
2022/06/26 12:24:00;;;;;;;13.80;13.10;;;;;;;21.79;100.00;101152.99;2002798;71;30865;-74
2022/06/26 12:29:45;;;;;;;10.30;9.60;;;;;;;21.58;100.00;101159.34;2004315;71;30988;-76
2022/06/26 12:35:30;;;;;;;10.00;9.40;;;;;;;21.67;100.00;101162.89;2000504;71;30929;-76
2022/06/26 12:41:18;;;;;;;9.53;9.03;;;;;;;21.77;100.00;101171.75;2004408;71;30966;-76
2022/06/26 12:47:04;;;;;;;9.93;9.20;;;;;;;21.84;100.00;101166.08;2003352;71;30867;-76
2022/06/26 12:52:49;;;;;;;10.40;9.75;;;;;;;21.76;100.00;101176.33;2017418;71;30900;-74
2022/06/26 12:58:36;;;;;;;10.73;10.03;;;;;;;21.84;100.00;101180.22;2015315;70;30894;-75
2022/06/26 13:04:25;;;;;;;10.53;9.75;;;;;;;21.86;100.00;101185.77;1998844;71;30830;-78
2022/06/26 13:10:15;;;;;;;10.35;9.53;;;;;;;21.77;100.00;101208.52;1899243;75;31593;-76
2022/06/26 13:16:01;;;;;;;10.90;10.00;;;;;;;21.49;100.00;101187.72;2004648;71;33297;-76
2022/06/26 13:21:46;;;;;;;10.68;9.88;;;;;;;21.98;100.00;101187.80;1991486;70;30886;-76
2022/06/26 13:27:31;;;;;;;10.70;10.00;;;;;;;21.96;100.00;101187.31;2013264;71;30893;-75
2022/06/26 13:33:15;;;;;;;11.08;10.35;;;;;;;21.78;100.00;101186.69;2008110;71;30961;-76
2022/06/26 13:38:59;;;;;;;10.68;10.03;;;;;;;21.49;100.00;101197.61;2006452;71;30855;-75
2022/06/26 13:44:44;;;;;;;10.40;9.80;;;;;;;21.75;100.00;101203.78;2009756;71;30878;-74
2022/06/26 13:50:29;;;;;;;10.73;9.93;;;;;;;21.13;100.00;101193.30;2015228;71;30869;-75
2022/06/26 13:56:16;;;;;;;10.63;9.87;;;;;;;21.26;100.00;101188.75;2013517;71;31278;-75
2022/06/26 14:02:00;;;;;;;10.95;10.30;;;;;;;21.06;100.00;101195.22;2004578;71;30992;-75
2022/06/26 14:07:45;;;;;;;10.80;10.10;;;;;;;21.02;100.00;101201.91;2013385;71;31394;-75
2022/06/26 14:13:29;;;;;;;10.60;9.77;;;;;;;21.26;100.00;101192.16;2005775;71;30898;-74
2022/06/26 14:19:14;;;;;;;10.50;9.97;;;;;;;21.70;100.00;101195.52;2006682;71;31313;-74
2022/06/26 14:31:01;;;;;;;9.87;9.20;;;;;;;21.52;100.00;101208.20;2011512;71;31011;-75
2022/06/26 14:36:47;;;;;;;11.07;10.30;;;;;;;21.31;100.00;101214.52;2002950;71;31498;-75
2022/06/26 14:42:32;;;;;;;14.63;13.80;;;;;;;21.56;100.00;101211.19;2011608;71;33335;-74
2022/06/26 14:48:16;;;;;;;10.90;10.00;;;;;;;22.01;100.00;101198.39;2011401;71;31034;-75
2022/06/26 14:54:00;;;;;;;10.17;9.47;;;;;;;21.86;100.00;101195.67;2009955;71;31400;-75
2022/06/26 14:59:44;;;;;;;10.85;10.25;;;;;;;21.36;100.00;101200.17;2012179;71;30821;-73
2022/06/26 15:05:29;;;;;;;10.10;9.40;;;;;;;21.31;100.00;101204.05;2002547;71;30862;-75
2022/06/26 15:11:14;;;;;;;10.47;9.80;;;;;;;21.31;100.00;101206.87;2004365;71;33414;-76
2022/06/26 15:16:58;;;;;;;10.80;9.90;;;;;;;21.57;100.00;101195.85;2015593;71;30904;-74
2022/06/26 15:22:42;;;;;;;10.30;9.80;;;;;;;21.34;100.00;101200.55;2009859;71;31012;-76
2022/06/26 15:28:27;;;;;;;10.70;10.10;;;;;;;21.53;100.00;101189.25;2001009;71;31385;-75
2022/06/26 15:34:12;;;;;;;10.77;10.17;;;;;;;21.65;100.00;101190.70;2013151;71;30995;-75
2022/06/26 15:39:56;;;;;;;10.60;10.00;;;;;;;21.85;100.00;101190.36;2014036;71;31469;-76
2022/06/26 15:45:41;;;;;;;11.30;10.40;;;;;;;22.16;100.00;101187.17;2000793;71;31330;-73
2022/06/26 15:51:26;;;;;;;11.35;10.65;;;;;;;21.93;100.00;101186.61;2009484;71;30922;-74
2022/06/26 15:57:11;;;;;;;10.85;10.00;;;;;;;21.98;100.00;101204.19;2006685;71;31386;-76
2022/06/26 16:02:56;;;;;;;11.12;10.23;;;;;;;21.55;100.00;101187.74;2017178;71;31077;-75
2022/06/26 16:08:42;;;;;;;10.63;9.88;;;;;;;21.93;100.00;101192.27;1996786;71;30804;-76
2022/06/26 16:14:28;;;;;;;25.37;23.10;;;;;;;21.60;100.00;101192.34;2016982;71;31401;-77
2022/06/26 16:20:13;;;;;;;33.27;30.07;;;;;;;21.72;100.00;101194.59;2016990;71;30893;-74
2022/06/26 16:32:00;;;;;;;10.70;9.90;;;;;;;21.47;100.00;101189.26;2006166;71;30919;-76
2022/06/26 16:37:44;;;;;;;14.30;13.40;;;;;;;21.44;100.00;101180.88;2013480;71;30974;-76
2022/06/26 16:40:13;;;;;;;10.53;9.83;;;;;;;;;;1981418;72;24589;-77
2022/06/26 16:45:57;;;;;;;10.80;10.00;;;;;;;21.02;100.00;101194.27;2004342;71;30860;-75
2022/06/26 16:51:42;;;;;;;10.40;9.80;;;;;;;20.92;100.00;101181.19;2008061;71;31405;-77
2022/06/26 16:57:29;;;;;;;10.70;9.90;;;;;;;20.98;100.00;101173.55;2005077;71;30887;-76
2022/06/26 17:03:14;;;;;;;10.53;9.93;;;;;;;21.06;100.00;101175.45;1964048;70;105083;-68
2022/06/26 17:08:58;;;;;;;13.33;12.40;;;;;;;20.86;100.00;101168.69;1961475;72;31370;-70
2022/06/26 17:14:43;;;;;;;12.37;11.53;;;;;;;20.82;100.00;101173.38;2011533;71;31367;-71
2022/06/26 17:20:28;;;;;;;10.33;9.73;;;;;;;20.59;100.00;101183.36;2018325;71;31005;-71
2022/06/26 17:26:12;;;;;;;10.90;10.40;;;;;;;20.80;100.00;101178.53;2002096;71;31000;-71
2022/06/26 17:31:57;;;;;;;10.87;10.17;;;;;;;20.85;100.00;101187.38;2009667;71;31004;-71
2022/06/26 17:37:41;;;;;;;11.20;10.30;;;;;;;20.83;100.00;101196.21;1991538;71;30909;-72
2022/06/26 17:43:26;;;;;;;10.87;10.07;;;;;;;20.57;100.00;101203.23;2000746;71;30882;-71
2022/06/26 17:49:14;;;;;;;10.80;10.07;;;;;;;20.45;100.00;101210.44;2002551;71;30834;-70
2022/06/26 17:54:58;;;;;;;10.10;9.60;;;;;;;20.53;100.00;101217.80;2011051;71;30942;-69
2022/06/26 18:00:46;;;;;;;11.10;10.30;;;;;;;20.29;100.00;101228.29;2004293;70;30869;-67
2022/06/26 18:06:31;;;;;;;10.97;10.40;;;;;;;20.49;100.00;101227.55;2011032;71;33306;-68
2022/06/26 18:12:17;;;;;;;11.00;10.30;;;;;;;20.21;100.00;101231.41;2014814;71;30879;-68
2022/06/26 18:18:02;;;;;;;10.30;9.70;;;;;;;19.95;100.00;101230.72;2016781;71;30903;-67
2022/06/26 18:23:46;;;;;;;9.80;9.27;;;;;;;19.88;100.00;101236.07;2018462;71;30988;-68
2022/06/26 18:29:30;;;;;;;10.60;9.90;;;;;;;19.61;100.00;101247.19;2000795;71;31324;-69
2022/06/26 18:35:15;;;;;;;10.00;9.47;;;;;;;19.58;100.00;101248.45;2004056;71;30929;-74
2022/06/26 18:40:59;;;;;;;10.87;9.97;;;;;;;19.50;100.00;101258.02;2003709;71;31331;-70
2022/06/26 18:46:44;;;;;;;9.93;9.33;;;;;;;19.47;100.00;101259.23;2014840;71;30847;-70
2022/06/26 18:52:29;;;;;;;9.50;8.90;;;;;;;19.38;100.00;101273.92;2005795;71;30854;-68
2022/06/26 18:58:13;;;;;;;10.10;9.53;;;;;;;19.45;100.00;101267.22;1995332;71;31274;-69
2022/06/26 19:04:00;;;;;;;10.17;9.57;;;;;;;19.29;100.00;101271.12;2016870;70;30925;-68
2022/06/26 19:09:44;;;;;;;10.40;9.80;;;;;;;19.28;100.00;101275.09;2009798;71;30878;-65
2022/06/26 19:15:29;;;;;;;10.20;9.47;;;;;;;19.05;100.00;101285.70;1994850;71;33378;-66
2022/06/26 19:21:17;;;;;;;10.37;9.70;;;;;;;18.94;100.00;101295.65;2012893;71;30872;-66
2022/06/26 19:27:04;;;;;;;11.43;10.63;;;;;;;18.88;100.00;101301.76;2009334;71;31410;-67
2022/06/26 19:32:49;;;;;;;9.97;9.47;;;;;;;18.78;100.00;101308.56;2011733;71;32818;-66
2022/06/26 19:38:34;;;;;;;10.67;9.87;;;;;;;18.80;100.00;101318.06;1999971;71;30962;-67
2022/06/26 19:44:19;;;;;;;9.93;9.30;;;;;;;18.74;100.00;101313.77;2003917;71;30956;-68
2022/06/26 19:56:10;;;;;;;10.43;9.73;;;;;;;18.45;100.00;101319.37;2005954;71;30857;-65
2022/06/26 20:01:54;;;;;;;10.57;9.83;;;;;;;18.47;100.00;101330.30;2000721;71;30886;-65
2022/06/26 20:07:40;;;;;;;10.00;9.40;;;;;;;18.35;100.00;101331.52;2006008;71;30858;-66
2022/06/26 20:13:26;;;;;;;10.60;9.87;;;;;;;18.30;100.00;101340.09;2000791;71;33248;-63
2022/06/26 20:19:12;;;;;;;11.07;10.10;;;;;;;18.13;100.00;101347.31;2006011;71;30826;-65
2022/06/26 20:24:57;;;;;;;10.40;9.67;;;;;;;18.03;100.00;101349.56;2010016;71;30921;-65
2022/06/26 20:30:42;;;;;;;10.50;9.63;;;;;;;18.01;100.00;101360.31;2009517;71;33327;-66
2022/06/26 20:36:27;;;;;;;10.57;9.90;;;;;;;17.87;100.00;101362.37;2013232;71;32990;-66
2022/06/26 20:42:16;;;;;;;10.70;9.90;;;;;;;17.75;100.00;101377.02;2011175;71;32810;-65
2022/06/26 20:48:04;;;;;;;10.73;10.00;;;;;;;17.74;100.00;101377.59;2013433;71;30870;-66
2022/06/26 20:53:50;;;;;;;10.90;10.10;;;;;;;17.58;100.00;101383.93;1991527;71;33365;-66
2022/06/26 20:59:35;;;;;;;10.87;10.07;;;;;;;17.61;100.00;101386.92;2003987;71;30876;-64
2022/06/26 21:05:22;;;;;;;11.43;10.47;;;;;;;17.47;100.00;101386.69;1995126;71;30834;-68
2022/06/26 21:11:07;;;;;;;11.13;10.20;;;;;;;17.49;100.00;101392.26;2011876;71;31253;-67
2022/06/26 21:16:54;;;;;;;10.23;9.60;;;;;;;17.38;100.00;101389.99;2011413;71;30975;-68
2022/06/26 21:22:39;;;;;;;10.93;9.90;;;;;;;17.35;100.00;101389.23;1991463;71;30811;-68
2022/06/26 21:28:26;;;;;;;11.40;10.40;;;;;;;17.24;100.00;101386.66;2006225;71;30867;-67
2022/06/26 21:34:10;;;;;;;11.73;10.53;;;;;;;17.12;100.00;101386.39;2003836;71;32973;-65
2022/06/26 21:39:57;;;;;;;11.40;10.63;;;;;;;16.90;100.00;101385.53;2009927;71;32778;-67
2022/06/26 21:45:45;;;;;;;12.67;11.43;;;;;;;17.03;100.00;101388.88;2009665;71;33326;-68
2022/06/26 21:51:29;;;;;;;12.33;11.50;;;;;;;16.75;100.00;101377.69;2014913;71;33386;-68
2022/06/26 21:57:14;;;;;;;13.20;12.17;;;;;;;16.72;100.00;101378.33;2002743;71;33310;-68
2022/06/26 22:03:01;;;;;;;13.07;11.87;;;;;;;16.76;100.00;101382.73;2016831;71;33371;-66
2022/06/26 22:08:46;;;;;;;13.70;12.60;;;;;;;16.59;100.00;101393.20;1951421;72;33481;-67
2022/06/26 22:14:31;;;;;;;15.27;14.23;;;;;;;16.59;100.00;101395.16;2011759;71;32897;-68
2022/06/26 22:20:18;;;;;;;16.53;15.40;;;;;;;16.49;100.00;101403.74;2015052;71;33407;-68
2022/06/26 22:32:07;;;;;;;23.27;21.57;;;;;;;16.33;100.00;101392.85;2000959;71;32968;-68
2022/06/26 22:37:53;;;;;;;25.67;23.77;;;;;;;16.27;100.00;101394.08;2013345;71;33505;-68
2022/06/26 22:43:39;;;;;;;25.60;23.90;;;;;;;16.20;100.00;101389.46;2016797;71;33361;-67
2022/06/26 22:49:23;;;;;;;26.47;24.67;;;;;;;16.08;100.00;101386.91;2016655;71;31421;-68
2022/06/26 22:55:10;;;;;;;25.93;24.23;;;;;;;16.06;100.00;101383.56;2013576;71;32877;-67
2022/06/26 23:00:56;;;;;;;26.87;25.13;;;;;;;15.93;100.00;101390.81;2015213;70;32914;-68
2022/06/26 23:06:42;;;;;;;28.77;27.07;;;;;;;15.75;100.00;101390.28;2014996;71;33338;-68
2022/06/26 23:12:27;;;;;;;30.60;28.60;;;;;;;15.76;100.00;101389.16;2016874;71;33413;-68
2022/06/26 23:18:13;;;;;;;29.97;28.07;;;;;;;15.72;100.00;101391.74;2014963;71;33387;-68
2022/06/26 23:23:58;;;;;;;31.43;29.30;;;;;;;15.72;100.00;101384.73;2014998;71;32952;-68
2022/06/26 23:29:42;;;;;;;32.63;30.30;;;;;;;15.55;100.00;101380.84;2011352;71;33297;-67
2022/06/26 23:35:27;;;;;;;34.87;32.33;;;;;;;15.48;100.00;101382.05;1998546;71;32919;-67
2022/06/26 23:41:13;;;;;;;36.27;33.67;;;;;;;15.46;100.00;101393.27;2018490;71;33336;-67
2022/06/26 23:46:58;;;;;;;37.60;35.20;;;;;;;15.30;100.00;101389.05;2014922;71;33367;-66
2022/06/26 23:52:42;;;;;;;37.70;35.17;;;;;;;15.33;100.00;101390.67;1995100;71;32801;-67
2022/06/26 23:58:27;;;;;;;39.83;37.00;;;;;;;15.27;100.00;101396.11;2000109;71;32958;-67
